Time;durP1;ratioP1;P1;durP2;ratioP2;P2;SDS_P1;SDS_P2;PMS_P1;PMS_P2;Temp;Humidity;BMP_temperature;BMP_pressure;BME280_temperature;BME280_humidity;BME280_pressure;Samples;Min_cycle;Max_cycle;Signal;HPM_P1;HPM_P2
2022/01/16 00:04:45;;;;;;;27.70;16.40;;;0.00;72.70;;;-1.49;58.28;95605.34;5037959;28;20234;-86
2022/01/16 00:07:12;;;;;;;28.00;16.30;;;-0.10;72.70;;;-1.49;58.78;95611.34;5024371;28;20239;-85
2022/01/16 00:09:39;;;;;;;26.77;16.65;;;-0.20;72.60;;;-1.46;58.53;95628.31;5037432;28;20254;-85
2022/01/16 00:12:07;;;;;;;27.65;15.98;;;-0.20;72.70;;;-1.52;58.56;95623.56;5053951;28;20203;-86
2022/01/16 00:14:35;;;;;;;27.48;16.13;;;-0.20;72.70;;;-1.52;58.40;95603.00;5036849;28;20203;-84
2022/01/16 00:17:04;;;;;;;25.90;16.10;;;-0.20;72.70;;;-1.51;58.47;95617.50;5052016;28;20471;-86
2022/01/16 00:19:31;;;;;;;27.30;16.27;;;-0.20;72.70;;;-1.49;59.00;95608.75;5070523;28;20231;-85
2022/01/16 00:21:58;;;;;;;30.10;16.00;;;-0.20;72.80;;;-1.49;58.41;95569.34;5037059;28;20204;-85
2022/01/16 00:24:26;;;;;;;26.98;15.40;;;-0.20;72.80;;;-1.52;58.81;95554.94;5053006;28;20287;-84
2022/01/16 00:26:54;;;;;;;23.67;14.63;;;-0.20;72.80;;;-1.52;58.54;95559.25;5036790;28;20270;-86
2022/01/16 00:29:22;;;;;;;26.77;15.60;;;-0.10;72.80;;;-1.52;58.70;95551.53;5053914;28;20204;-86
2022/01/16 00:31:49;;;;;;;24.27;15.05;;;-0.30;72.70;;;-1.54;58.51;95579.09;5036725;28;20216;-85
2022/01/16 00:34:17;;;;;;;24.38;14.90;;;-0.30;72.70;;;-1.56;58.50;95596.38;5037198;28;20206;-86
2022/01/16 00:36:44;;;;;;;26.77;15.23;;;-0.30;72.80;;;-1.58;58.02;95591.34;5049467;28;20592;-85
2022/01/16 00:39:11;;;;;;;22.98;14.45;;;-0.30;72.70;;;-1.64;58.82;95586.59;5052207;28;20233;-86
2022/01/16 00:41:39;;;;;;;25.30;15.52;;;-0.30;72.70;;;-1.68;58.56;95567.16;5036590;28;20212;-84
2022/01/16 00:44:06;;;;;;;25.88;15.63;;;-0.30;72.70;;;-1.65;58.65;95546.38;5051340;28;20239;-86
2022/01/16 00:46:34;;;;;;;24.67;14.25;;;-0.30;72.70;;;-1.67;58.64;95559.34;5049416;28;20224;-86
2022/01/16 00:49:02;;;;;;;25.00;15.52;;;-0.30;72.70;;;-1.73;58.49;95554.59;5017012;28;20207;-85
2022/01/16 00:51:30;;;;;;;26.63;15.88;;;-0.40;72.70;;;-1.71;58.99;95578.47;5035019;28;20566;-86
2022/01/16 00:53:57;;;;;;;24.70;14.52;;;-0.40;72.70;;;-1.77;58.57;95571.13;5033342;28;20208;-85
2022/01/16 00:56:24;;;;;;;25.20;15.25;;;-0.40;72.70;;;-1.80;58.49;95553.34;5049866;28;20212;-85
2022/01/16 00:58:52;;;;;;;25.70;14.77;;;-0.40;72.70;;;-1.75;58.65;95558.19;5036235;28;20219;-86
2022/01/16 01:01:20;;;;;;;25.27;14.93;;;-0.40;72.80;;;-1.80;58.72;95548.22;5019669;28;20216;-85
2022/01/16 01:03:47;;;;;;;26.67;15.23;;;-0.40;72.80;;;-1.78;58.91;95567.75;5026597;28;20661;-84
2022/01/16 01:06:15;;;;;;;24.25;15.38;;;-0.50;72.80;;;-1.76;58.84;95567.66;5036539;28;20262;-86
2022/01/16 01:08:42;;;;;;;23.50;14.88;;;-0.50;72.80;;;-1.77;58.96;95569.41;5036474;28;20262;-86
2022/01/16 01:11:15;;;;;;;20.77;14.52;;;-0.50;72.90;;;-1.83;59.05;95574.09;5052616;28;20226;-86
2022/01/16 01:19:14;;;;;;;21.25;13.43;;;-0.50;72.90;;;-1.83;58.88;95598.09;5039032;28;20227;-86
2022/01/16 01:21:41;;;;;;;28.55;14.55;;;-0.50;72.90;;;-1.84;58.81;95593.88;5051639;28;20251;-85
2022/01/16 01:24:09;;;;;;;29.63;14.98;;;-0.50;72.90;;;-1.84;58.85;95531.34;5052780;28;20257;-86
2022/01/16 01:26:45;;;;;;;23.50;15.23;;;-0.50;72.90;;;-1.87;58.77;95488.63;5036057;28;20224;-86
2022/01/16 01:29:17;;;;;;;25.52;14.38;;;-0.50;73.00;;;-1.92;58.80;95477.03;5037494;28;20195;-86
2022/01/16 01:31:45;;;;;;;24.50;14.30;;;-0.50;73.10;;;-1.87;58.74;95468.06;5051580;28;20212;-85
2022/01/16 01:34:12;;;;;;;24.15;14.68;;;-0.50;73.00;;;-1.84;58.81;95469.63;5035608;28;20231;-86
2022/01/16 01:36:39;;;;;;;24.70;15.18;;;-0.50;73.00;;;-1.88;58.66;95487.00;5048919;28;20220;-85
2022/01/16 01:39:06;;;;;;;22.13;14.27;;;-0.50;73.00;;;-1.88;58.65;95510.16;5048825;28;20263;-86
2022/01/16 01:41:36;;;;;;;28.38;15.18;;;-0.50;73.00;;;-1.87;58.71;95511.78;5044306;28;20301;-85
2022/01/16 01:52:21;;;;;;;22.65;14.50;;;-0.60;73.10;;;-1.97;58.71;95508.97;5062913;28;20239;-86
2022/01/16 01:54:49;;;;;;;24.20;14.80;;;-0.60;73.00;;;-1.92;58.83;95531.00;5019179;28;20200;-85
2022/01/16 01:57:16;;;;;;;22.83;14.40;;;-0.60;73.10;;;-1.93;58.98;95525.03;5052341;28;20199;-85
2022/01/16 01:59:44;;;;;;;22.45;14.65;;;-0.60;73.10;;;-1.92;58.71;95507.88;5052045;28;20628;-85
2022/01/16 02:02:11;;;;;;;23.90;14.00;;;-0.70;73.00;;;-1.93;58.72;95499.31;5039166;28;20196;-86
2022/01/16 02:04:39;;;;;;;22.25;13.23;;;-0.60;73.10;;;-1.94;58.77;95511.38;5035123;28;20203;-84
2022/01/16 02:07:06;;;;;;;22.00;13.32;;;-0.70;73.00;;;-1.98;58.70;95521.94;5051449;28;20207;-86
2022/01/16 02:09:33;;;;;;;23.92;14.48;;;-0.60;73.10;;;-2.00;58.82;95522.06;5050955;28;20202;-86
2022/01/16 02:12:02;;;;;;;21.08;13.68;;;-0.70;73.00;;;-2.01;58.88;95522.97;5035650;28;20223;-86
2022/01/16 02:14:45;;;;;;;20.42;13.02;;;-0.70;73.10;;;-1.97;58.83;95544.16;5035036;28;20196;-86
2022/01/16 02:36:18;;;;;;;20.13;12.20;;;-0.80;72.80;;;-2.14;58.58;95501.56;5046745;28;20216;-86
2022/01/16 02:38:47;;;;;;;23.33;13.05;;;-0.80;72.80;;;-2.20;58.90;95500.19;5027356;28;20196;-85
2022/01/16 02:41:15;;;;;;;21.83;13.32;;;-0.80;72.80;;;-2.20;58.76;95517.38;5051730;28;20235;-85
2022/01/16 02:43:47;;;;;;;22.90;13.45;;;-0.80;72.80;;;-2.28;58.69;95500.69;5022816;28;20192;-86
2022/01/16 02:48:47;;;;;;;23.98;13.85;;;-0.90;72.80;;;-2.27;58.71;95504.91;5032237;28;20196;-86
2022/01/16 02:51:25;;;;;;;23.25;13.52;;;-0.90;72.90;;;-2.28;58.67;95505.84;5052200;28;20220;-85
2022/01/16 02:53:53;;;;;;;21.35;13.18;;;-0.90;73.10;;;-2.33;58.67;95510.44;5031690;28;20201;-86
2022/01/16 02:56:21;;;;;;;23.63;13.88;;;-1.00;72.90;;;-2.29;58.62;95518.78;5021114;28;20269;-85
2022/01/16 02:58:50;;;;;;;20.23;13.02;;;-0.90;73.00;;;-2.30;58.81;95515.38;5035396;28;20212;-86
2022/01/16 03:01:18;;;;;;;22.48;13.80;;;-1.00;73.00;;;-2.32;58.91;95512.09;5027719;28;20227;-86
2022/01/16 03:03:46;;;;;;;23.30;13.50;;;-1.00;73.00;;;-2.35;58.84;95507.13;5018524;28;20246;-85
2022/01/16 03:06:14;;;;;;;21.30;13.98;;;-1.00;73.00;;;-2.35;59.15;95496.88;5055209;28;20304;-86
2022/01/16 03:08:41;;;;;;;27.60;14.48;;;-1.00;72.90;;;-2.35;58.78;95489.16;5055023;28;20283;-86
2022/01/16 03:11:34;;;;;;;22.85;14.27;;;-1.00;72.90;;;-2.35;58.73;95494.28;5038344;28;20224;-85
2022/01/16 03:14:12;;;;;;;22.20;13.88;;;-1.10;73.00;;;-2.42;58.62;95483.59;5046240;28;20239;-84
2022/01/16 03:16:45;;;;;;;27.27;15.18;;;-1.00;73.10;;;-2.45;58.78;95465.00;5018496;28;20721;-85
2022/01/16 03:22:03;;;;;;;23.23;13.95;;;-1.10;73.00;;;-2.46;59.03;95459.00;5021640;28;20192;-86
2022/01/16 03:24:35;;;;;;;23.13;14.02;;;-1.10;73.00;;;-2.40;58.88;95465.50;5028773;28;20192;-86
2022/01/16 03:27:06;;;;;;;22.95;13.77;;;-1.10;73.10;;;-2.46;59.10;95453.06;5018782;28;20665;-85
2022/01/16 03:29:34;;;;;;;20.35;13.43;;;-1.10;73.10;;;-2.40;59.03;95465.50;5035846;28;20196;-86
2022/01/16 03:32:06;;;;;;;23.77;14.82;;;-1.10;73.00;;;-2.44;58.81;95449.47;5051172;28;20193;-87
2022/01/16 03:34:33;;;;;;;23.20;15.13;;;-1.10;73.20;;;-2.38;59.23;95455.97;5034583;28;20200;-85
2022/01/16 03:37:02;;;;;;;27.38;15.18;;;-1.10;73.10;;;-2.37;59.05;95449.88;5042098;28;20654;-85
2022/01/16 03:39:29;;;;;;;26.83;15.65;;;-1.10;73.10;;;-2.38;59.10;95450.84;5038121;28;20270;-86
2022/01/16 03:41:58;;;;;;;25.45;14.88;;;-1.10;73.20;;;-2.37;59.56;95447.31;5054110;28;20243;-85
2022/01/16 03:44:26;;;;;;;24.20;15.25;;;-1.10;73.10;;;-2.36;58.95;95443.03;5051063;28;20223;-86
2022/01/16 03:46:53;;;;;;;26.52;15.02;;;-1.10;73.10;;;-2.44;59.00;95428.09;5020752;28;20234;-85
2022/01/16 03:49:28;;;;;;;27.65;16.73;;;-1.10;73.10;;;-2.37;58.94;95443.94;5054547;28;20207;-86
2022/01/16 03:51:58;;;;;;;25.92;15.77;;;-1.10;73.40;;;-2.38;59.01;95439.72;5034310;28;20227;-85
2022/01/16 03:54:28;;;;;;;23.63;14.93;;;-1.10;73.80;;;-2.39;58.99;95433.78;5035084;28;20201;-87
2022/01/16 03:56:56;;;;;;;27.55;15.52;;;-1.10;73.20;;;-2.45;59.12;95429.84;5047507;28;20705;-86
2022/01/16 03:59:24;;;;;;;24.35;14.63;;;-1.10;73.20;;;-2.40;59.09;95444.97;5037777;28;20220;-85
2022/01/16 04:01:51;;;;;;;22.20;14.35;;;-1.10;73.20;;;-2.44;59.00;95436.63;5037775;28;20333;-86
2022/01/16 04:04:19;;;;;;;29.95;15.43;;;-1.10;73.20;;;-2.42;59.11;95436.53;5037675;28;20572;-85
2022/01/16 04:06:46;;;;;;;21.80;14.80;;;-1.00;73.20;;;-2.43;58.96;95443.41;5033039;28;20213;-86
2022/01/16 04:09:14;;;;;;;23.48;15.00;;;-1.10;73.10;;;-2.43;59.11;95442.59;5053797;28;20200;-86
2022/01/16 04:11:51;;;;;;;28.35;16.70;;;-1.10;73.20;;;-2.46;59.12;95443.59;5053615;28;20220;-86
2022/01/16 04:15:31;;;;;;;27.52;15.52;;;-1.10;73.20;;;-2.46;59.38;95458.22;5038420;28;20184;-86
2022/01/16 04:17:18;;;;;;;23.83;14.60;;;-1.10;73.20;;;-2.47;59.28;95464.25;5056407;28;20188;-85
2022/01/16 04:19:45;;;;;;;26.00;15.40;;;-1.10;73.20;;;-2.47;59.14;95461.69;5036511;28;20271;-85
2022/01/16 04:22:14;;;;;;;23.73;14.80;;;-1.10;73.20;;;-2.52;59.10;95446.56;5036607;28;20204;-85
2022/01/16 04:24:41;;;;;;;27.98;16.00;;;-1.10;73.20;;;-2.47;59.05;95452.22;5037038;28;20216;-85
2022/01/16 04:27:11;;;;;;;24.45;15.63;;;-1.10;73.20;;;-2.50;59.37;95446.47;5036934;28;20610;-85
2022/01/16 04:29:40;;;;;;;26.05;15.38;;;-1.10;73.30;;;-2.47;59.32;95439.38;5053847;28;20192;-85
2022/01/16 04:32:07;;;;;;;27.35;15.75;;;-1.20;73.20;;;-2.49;59.06;95430.13;5033597;28;20279;-86
2022/01/16 04:34:35;;;;;;;22.67;14.73;;;-1.10;73.40;;;-2.45;59.24;95445.25;5033486;28;20204;-84
2022/01/16 04:37:03;;;;;;;25.30;15.10;;;-1.10;73.30;;;-2.43;59.32;95442.59;5036596;28;20199;-85
2022/01/16 04:39:33;;;;;;;24.98;14.60;;;-1.10;73.40;;;-2.47;58.91;95441.13;5036389;28;20203;-86
2022/01/16 04:44:49;;;;;;;22.58;14.18;;;-1.20;73.20;;;-2.54;58.98;95433.00;5039396;28;20188;-85
2022/01/16 04:47:17;;;;;;;23.77;14.27;;;-1.20;73.20;;;-2.54;59.25;95439.88;5033295;28;20220;-85
2022/01/16 04:49:44;;;;;;;26.15;14.60;;;-1.20;73.20;;;-2.55;59.14;95443.38;5023129;28;20296;-85
2022/01/16 04:52:11;;;;;;;24.83;14.38;;;-1.20;73.20;;;-2.60;58.80;95431.66;5036716;28;20192;-85
2022/01/16 04:54:39;;;;;;;27.25;14.40;;;-1.20;73.30;;;-2.63;59.06;95425.91;5053062;28;20651;-84
2022/01/16 04:57:06;;;;;;;25.88;14.98;;;-1.20;73.20;;;-2.60;59.12;95434.22;5017905;28;20209;-85
2022/01/16 04:59:33;;;;;;;26.25;15.50;;;-1.30;73.20;;;-2.65;58.85;95418.31;5038682;28;20205;-86
2022/01/16 05:02:00;;;;;;;26.25;15.40;;;-1.30;73.20;;;-2.62;59.06;95415.53;5033285;28;20216;-85
2022/01/16 05:04:28;;;;;;;25.52;15.40;;;-1.30;73.20;;;-2.63;59.29;95423.31;5035665;28;20291;-84
2022/01/16 05:06:57;;;;;;;24.05;14.85;;;-1.30;73.20;;;-2.68;59.17;95425.38;5016729;28;20224;-85
2022/01/16 05:09:25;;;;;;;26.33;16.27;;;-1.30;73.30;;;-2.66;59.12;95423.50;5032715;28;20236;-84
2022/01/16 05:11:56;;;;;;;24.50;15.30;;;-1.30;73.30;;;-2.65;59.44;95415.72;5032983;28;20744;-85
2022/01/16 05:17:09;;;;;;;25.42;15.05;;;-1.30;73.50;;;-2.63;59.17;95426.72;5052460;28;20283;-84
2022/01/16 05:19:37;;;;;;;23.77;15.50;;;-1.30;73.40;;;-2.68;59.24;95410.78;5035825;28;20294;-84
2022/01/16 05:22:05;;;;;;;24.63;14.65;;;-1.30;73.40;;;-2.71;59.34;95411.00;5036212;28;20196;-85
2022/01/16 05:24:34;;;;;;;24.77;15.70;;;-1.30;73.40;;;-2.64;59.25;95419.09;5035066;28;20246;-85
2022/01/16 05:27:05;;;;;;;24.77;14.95;;;-1.30;73.30;;;-2.66;59.03;95424.34;5035715;28;20254;-84
2022/01/16 05:29:32;;;;;;;28.00;16.13;;;-1.30;73.30;;;-2.69;59.18;95411.69;5035945;28;20188;-85
2022/01/16 05:31:59;;;;;;;24.45;15.50;;;-1.30;73.40;;;-2.66;59.11;95405.53;5034499;28;20200;-84
2022/01/16 05:34:29;;;;;;;25.85;16.23;;;-1.30;73.40;;;-2.67;59.69;95411.59;5047374;28;20654;-85
2022/01/16 05:36:57;;;;;;;31.00;17.15;;;-1.30;73.50;;;-2.71;59.45;95407.59;5053067;28;20203;-85
2022/01/16 05:39:25;;;;;;;27.65;16.30;;;-1.30;73.50;;;-2.66;59.36;95414.09;5052891;28;20196;-85
2022/01/16 05:41:52;;;;;;;28.33;15.70;;;-1.30;73.50;;;-2.65;59.29;95410.59;5051897;28;20235;-85
2022/01/16 05:44:21;;;;;;;29.77;16.30;;;-1.30;73.50;;;-2.66;59.18;95408.94;5035469;28;20199;-85
2022/01/16 05:46:48;;;;;;;25.63;15.88;;;-1.40;73.40;;;-2.66;59.37;95396.09;5052385;28;20219;-84
2022/01/16 05:49:15;;;;;;;30.60;16.35;;;-1.40;73.40;;;-2.74;59.25;95391.44;5036190;28;20701;-85
2022/01/16 05:51:42;;;;;;;28.33;15.77;;;-1.40;73.30;;;-2.75;59.36;95387.25;5048429;28;20236;-85
2022/01/16 05:54:10;;;;;;;30.33;17.55;;;-1.40;73.30;;;-2.76;59.20;95390.75;5026652;28;20200;-86
2022/01/16 05:56:37;;;;;;;30.60;18.40;;;-1.40;73.30;;;-2.78;59.17;95402.03;5032300;28;20240;-84
2022/01/16 05:59:04;;;;;;;29.67;18.15;;;-1.40;73.20;;;-2.81;59.17;95400.44;5051034;28;20665;-85
2022/01/16 06:01:31;;;;;;;33.38;18.40;;;-1.40;73.20;;;-2.88;59.24;95385.56;5051669;28;20662;-85
2022/01/16 06:03:58;;;;;;;32.67;17.58;;;-1.50;73.20;;;-2.88;59.33;95386.41;5035900;28;20195;-85
2022/01/16 06:06:26;;;;;;;30.85;17.85;;;-1.50;74.10;;;-2.87;59.38;95380.31;5052090;28;20224;-84
2022/01/16 06:08:53;;;;;;;32.38;17.40;;;-1.50;73.20;;;-2.88;59.28;95381.25;5018530;28;20204;-85
2022/01/16 06:11:25;;;;;;;32.03;17.38;;;-1.50;73.20;;;-2.92;59.09;95372.94;5052208;28;20224;-85
2022/01/16 06:13:52;;;;;;;32.45;17.52;;;-1.50;73.20;;;-2.96;59.40;95362.94;5031062;28;20215;-85
2022/01/16 06:16:19;;;;;;;33.38;17.85;;;-1.50;73.20;;;-2.92;59.47;95372.09;5048139;28;20585;-84
2022/01/16 06:18:47;;;;;;;29.65;17.48;;;-1.50;73.30;;;-2.94;59.48;95369.63;5052268;28;20785;-84
2022/01/16 06:21:14;;;;;;;34.33;18.65;;;-1.60;73.20;;;-2.94;59.06;95376.50;5043939;28;20295;-85
2022/01/16 06:23:41;;;;;;;37.03;18.67;;;-1.60;73.30;;;-2.96;59.32;95365.53;5034835;28;20199;-85
2022/01/16 06:26:09;;;;;;;38.70;20.38;;;-1.60;73.30;;;-2.93;59.40;95371.28;5035320;28;20735;-85
2022/01/16 06:28:36;;;;;;;34.25;19.77;;;-1.60;73.50;;;-2.97;59.61;95367.25;5020439;28;20287;-84
2022/01/16 06:31:05;;;;;;;34.63;18.83;;;-1.60;73.50;;;-2.92;59.54;95372.94;5034938;28;20228;-84
2022/01/16 06:33:32;;;;;;;35.42;19.88;;;-1.60;73.50;;;-2.91;59.56;95366.84;5035061;28;20199;-84
2022/01/16 06:36:01;;;;;;;32.45;17.95;;;-1.60;73.50;;;-2.87;59.28;95369.25;5051671;28;20220;-84
2022/01/16 06:38:29;;;;;;;47.10;19.98;;;-1.60;73.50;;;-2.84;59.60;95380.13;5052143;28;20196;-85
2022/01/16 06:40:56;;;;;;;37.05;19.58;;;-1.60;73.50;;;-2.81;59.55;95381.69;5051868;28;20228;-85
2022/01/16 06:43:23;;;;;;;40.15;20.10;;;-1.50;73.70;;;-2.76;59.39;95387.34;5035721;28;20236;-84
2022/01/16 06:45:51;;;;;;;38.30;18.70;;;-1.50;73.70;;;-2.72;59.47;95378.53;5053545;28;20315;-85
2022/01/16 06:48:18;;;;;;;42.33;20.55;;;-1.50;73.80;;;-2.69;59.54;95380.88;5033044;28;20196;-85
2022/01/16 06:50:46;;;;;;;41.72;19.00;;;-1.50;73.80;;;-2.70;59.57;95375.84;5037972;28;20224;-85
2022/01/16 06:53:13;;;;;;;40.15;18.20;;;-1.50;73.70;;;-2.69;59.70;95378.31;5051515;28;20254;-85
2022/01/16 06:55:40;;;;;;;31.73;17.88;;;-1.40;73.80;;;-2.67;58.90;95373.06;5018965;28;20213;-85
2022/01/16 06:58:12;;;;;;;36.92;18.75;;;-1.40;73.70;;;-2.69;59.43;95370.63;5057457;28;20196;-84
2022/01/16 07:00:39;;;;;;;33.60;18.42;;;-1.40;73.70;;;-2.68;59.14;95368.88;5052583;28;20221;-84
2022/01/16 07:03:06;;;;;;;34.17;17.88;;;-1.40;73.60;;;-2.66;58.95;95375.56;5050545;28;20212;-84
2022/01/16 07:05:34;;;;;;;37.83;18.35;;;-1.40;73.50;;;-2.70;59.28;95368.16;5035216;28;20587;-85
2022/01/16 07:08:01;;;;;;;42.88;18.80;;;-1.40;73.60;;;-2.72;59.68;95372.56;5025710;28;20259;-82
2022/01/16 07:10:28;;;;;;;30.27;17.27;;;-1.40;73.60;;;-2.67;59.38;95384.19;5039227;28;20319;-84
2022/01/16 07:12:55;;;;;;;31.10;17.30;;;-1.40;73.60;;;-2.69;59.46;95377.50;5053885;28;20321;-85
2022/01/16 07:15:23;;;;;;;26.85;15.80;;;-1.40;73.70;;;-2.70;59.39;95379.22;5037173;28;20247;-83
2022/01/16 07:17:51;;;;;;;30.23;17.08;;;-1.40;73.70;;;-2.61;59.50;95386.34;5040419;28;20200;-83
2022/01/16 07:20:18;;;;;;;26.70;16.10;;;-1.40;73.70;;;-2.60;59.62;95388.00;5027286;28;20203;-83
2022/01/16 07:22:45;;;;;;;29.58;16.75;;;-1.40;74.70;;;-2.58;59.47;95383.56;5054326;28;20253;-83
2022/01/16 07:25:13;;;;;;;28.20;15.90;;;-1.40;73.80;;;-2.51;59.38;95391.72;5025723;28;20224;-83
2022/01/16 07:27:41;;;;;;;28.92;16.55;;;-1.30;73.90;;;-2.52;59.41;95381.56;5050458;28;20200;-83
2022/01/16 07:30:09;;;;;;;27.80;16.73;;;-1.30;73.90;;;-2.51;59.64;95381.44;5034380;28;20319;-83
2022/01/16 07:32:36;;;;;;;30.67;18.00;;;-1.30;74.00;;;-2.43;59.21;95389.47;5041235;28;20712;-83
2022/01/16 07:35:04;;;;;;;31.45;18.63;;;-1.30;73.90;;;-2.43;59.56;95368.09;5050399;28;20221;-84
2022/01/16 07:37:52;;;;;;;30.08;17.08;;;-1.20;74.00;;;-2.36;59.59;95371.09;5064188;28;20216;-84
2022/01/16 07:40:21;;;;;;;26.65;16.45;;;-1.30;74.00;;;-2.38;59.36;95367.78;5052791;28;20227;-83
2022/01/16 07:42:49;;;;;;;30.23;18.20;;;-1.20;74.20;;;-2.24;59.68;95383.13;5069332;28;20202;-83
2022/01/16 07:45:16;;;;;;;29.98;16.98;;;-1.20;74.30;;;-2.18;59.63;95379.34;5035650;28;20247;-82
2022/01/16 07:47:43;;;;;;;29.48;16.20;;;-1.10;74.30;;;-2.17;59.74;95370.69;5036645;28;20291;-83
2022/01/16 07:50:12;;;;;;;28.77;16.27;;;-1.10;74.40;;;-2.05;59.94;95376.75;5058195;28;20232;-82
2022/01/16 07:52:47;;;;;;;27.88;15.98;;;-1.00;74.40;;;-2.02;59.44;95368.84;5049552;28;20700;-83
2022/01/16 07:55:15;;;;;;;28.45;17.00;;;-0.90;74.60;;;-1.90;59.38;95370.59;5069601;28;20216;-83
2022/01/16 07:57:43;;;;;;;30.50;16.33;;;-0.90;74.60;;;-1.83;59.97;95360.69;5053079;28;20250;-83
2022/01/16 08:00:29;;;;;;;30.35;17.90;;;-0.90;74.60;;;-1.81;59.68;95354.56;5056718;28;20231;-82
2022/01/16 08:02:57;;;;;;;29.48;18.33;;;-0.80;74.60;;;-1.69;59.64;95365.72;5045484;28;20226;-83
2022/01/16 08:05:26;;;;;;;28.48;17.77;;;-0.70;74.60;;;-1.63;59.78;95372.22;5050132;28;20706;-82
2022/01/16 08:07:53;;;;;;;27.65;17.80;;;-0.70;74.80;;;-1.54;59.55;95370.75;5035329;28;20240;-83
2022/01/16 08:10:20;;;;;;;29.15;17.40;;;-0.60;74.70;;;-1.48;59.77;95367.75;5053669;28;20258;-82
2022/01/16 08:12:48;;;;;;;30.65;18.83;;;-0.60;74.80;;;-1.41;59.98;95366.41;5041751;28;20200;-82
2022/01/16 08:15:15;;;;;;;31.40;19.35;;;-0.50;74.90;;;-1.34;59.73;95365.03;5052423;28;20224;-82
2022/01/16 08:17:42;;;;;;;33.08;19.35;;;-0.50;74.80;;;-1.29;59.76;95357.81;5069572;28;20554;-82
2022/01/16 08:20:10;;;;;;;34.80;19.95;;;-0.40;74.90;;;-1.19;59.73;95359.75;5031879;28;20285;-82
2022/01/16 08:22:37;;;;;;;138.27;58.38;;;-0.30;75.00;;;-1.08;59.57;95366.72;5049448;28;20219;-82
2022/01/16 08:25:06;;;;;;;77.80;40.00;;;-0.20;75.00;;;-1.00;59.54;95369.53;5035496;28;20303;-82
2022/01/16 08:27:33;;;;;;;58.80;33.67;;;-0.20;75.00;;;-0.92;59.77;95364.66;5028446;28;20210;-82
2022/01/16 08:30:05;;;;;;;47.67;26.40;;;-0.10;75.00;;;-0.89;59.56;95356.75;5035669;28;20720;-82
2022/01/16 08:32:32;;;;;;;38.22;22.65;;;0.00;75.00;;;-0.78;59.59;95360.28;5052383;28;20223;-82
2022/01/16 08:35:00;;;;;;;34.95;21.83;;;0.00;75.00;;;-0.72;59.57;95350.38;5052527;28;20224;-82
2022/01/16 08:37:28;;;;;;;33.60;20.70;;;0.10;75.00;;;-0.61;59.73;95344.44;5069121;28;20736;-84
2022/01/16 08:39:55;;;;;;;34.33;19.85;;;0.10;75.00;;;-0.51;59.69;95332.50;5051827;28;20212;-82
2022/01/16 08:42:22;;;;;;;33.72;20.17;;;0.20;75.20;;;-0.42;59.58;95332.78;5052752;28;20305;-82
2022/01/16 08:44:49;;;;;;;32.90;19.45;;;0.30;75.20;;;-0.34;59.84;95335.63;5032695;28;20216;-82
2022/01/16 08:47:18;;;;;;;33.45;19.67;;;0.40;75.30;;;-0.23;59.88;95327.88;5069076;28;20246;-83
2022/01/16 08:49:45;;;;;;;78.40;35.22;;;0.50;75.40;;;-0.11;59.79;95326.16;5053092;28;20233;-82
2022/01/16 08:52:13;;;;;;;66.53;31.80;;;0.50;76.20;;;0.05;60.07;95322.38;5047971;28;20201;-82
2022/01/16 08:54:42;;;;;;;69.57;31.80;;;0.60;75.50;;;0.19;59.91;95313.63;5049606;28;20212;-83
2022/01/16 08:57:09;;;;;;;44.03;24.33;;;0.80;75.80;;;0.36;59.96;95313.13;5018801;28;20222;-83
2022/01/16 08:59:36;;;;;;;39.83;22.15;;;0.90;75.90;;;0.52;59.64;95315.31;5033375;28;20493;-82
2022/01/16 09:02:04;;;;;;;35.20;21.35;;;1.00;75.90;;;0.68;60.02;95311.56;5048472;28;20231;-82
2022/01/16 09:04:33;;;;;;;46.58;26.75;;;1.10;76.00;;;0.84;59.95;95309.38;5037737;28;20685;-82
2022/01/16 09:07:00;;;;;;;37.58;21.83;;;1.30;76.10;;;1.01;60.08;95320.97;5048736;28;20229;-83
2022/01/16 09:09:28;;;;;;;35.47;20.83;;;1.40;76.20;;;1.16;59.96;95315.50;5048876;28;20196;-83
2022/01/16 09:11:55;;;;;;;38.53;22.80;;;1.50;76.10;;;1.27;59.88;95311.13;5030267;28;20311;-84
2022/01/16 09:14:23;;;;;;;38.30;22.95;;;1.70;76.10;;;1.34;59.46;95300.28;5028271;28;20213;-83
2022/01/16 09:16:50;;;;;;;41.53;24.50;;;1.80;76.00;;;1.37;59.56;95295.69;5022498;28;20307;-84
2022/01/16 09:19:18;;;;;;;34.78;21.33;;;1.90;75.70;;;1.40;59.49;95302.38;5025202;28;20254;-84
2022/01/16 09:21:45;;;;;;;34.97;21.58;;;2.00;75.60;;;1.39;59.34;95300.72;5035795;28;20234;-83
2022/01/16 09:24:13;;;;;;;33.83;21.33;;;2.10;75.40;;;1.37;59.48;95300.03;5050334;28;20196;-85
2022/01/16 09:26:40;;;;;;;43.55;25.65;;;2.10;75.20;;;1.34;59.58;95297.69;5035843;28;20252;-84
2022/01/16 09:29:07;;;;;;;41.35;24.73;;;2.20;75.20;;;1.33;59.32;95288.31;5035470;28;20203;-85
2022/01/16 09:31:34;;;;;;;35.85;22.85;;;2.20;75.10;;;1.29;59.80;95285.16;5049999;28;20304;-84
2022/01/16 09:34:02;;;;;;;37.00;22.23;;;2.20;75.00;;;1.28;59.73;95284.34;5051714;28;20192;-84
2022/01/16 09:36:29;;;;;;;31.40;20.67;;;2.20;75.10;;;1.28;59.46;95289.50;5035666;28;20277;-84
2022/01/16 09:38:56;;;;;;;32.08;20.50;;;2.20;75.10;;;1.34;59.72;95289.94;5035731;28;20565;-85
2022/01/16 09:41:24;;;;;;;29.40;19.40;;;2.20;75.20;;;1.40;59.79;95285.09;5031489;28;20738;-83
2022/01/16 09:43:52;;;;;;;36.25;19.92;;;2.20;75.30;;;1.42;60.09;95272.84;5034375;28;20218;-84
2022/01/16 09:46:20;;;;;;;32.72;21.08;;;2.30;75.50;;;1.52;59.94;95277.28;5035498;28;20231;-84
2022/01/16 09:48:47;;;;;;;28.92;19.20;;;2.30;75.60;;;1.67;59.89;95288.09;5035612;28;20253;-83
2022/01/16 09:51:15;;;;;;;30.27;19.88;;;2.40;75.70;;;1.75;59.43;95296.06;5034840;28;20207;-83
2022/01/16 09:53:47;;;;;;;31.98;20.95;;;2.40;75.60;;;1.75;59.93;95275.38;5036221;28;20674;-83
2022/01/16 09:56:14;;;;;;;36.60;22.52;;;2.50;75.60;;;1.83;59.89;95272.97;5035211;28;20763;-84
2022/01/16 09:58:41;;;;;;;56.13;36.15;;;2.60;75.70;;;1.90;59.99;95270.66;5034749;28;20662;-84
2022/01/16 10:01:08;;;;;;;49.38;32.22;;;2.60;75.60;;;1.97;59.95;95273.56;5033915;28;20263;-83
2022/01/16 10:03:46;;;;;;;43.00;27.75;;;2.70;75.60;;;1.99;59.82;95259.56;5033372;28;20649;-84
2022/01/16 10:06:19;;;;;;;40.85;27.38;;;2.70;75.70;;;2.03;59.86;95263.50;5034787;28;20216;-84
2022/01/16 10:08:48;;;;;;;36.53;23.60;;;2.80;75.60;;;2.04;59.90;95256.59;5035416;28;20230;-83
2022/01/16 10:11:29;;;;;;;33.65;21.73;;;2.80;75.50;;;2.06;59.74;95262.44;5047359;28;20570;-84
2022/01/16 10:14:02;;;;;;;34.75;23.10;;;2.90;75.80;;;2.05;60.04;95251.28;5034907;28;20188;-83
2022/01/16 10:16:35;;;;;;;32.78;20.85;;;2.90;75.50;;;2.11;60.29;95249.91;5039096;28;20294;-83
2022/01/16 10:19:04;;;;;;;35.78;22.10;;;3.00;76.40;;;2.15;60.28;95235.78;5055636;28;20207;-83
2022/01/16 10:21:33;;;;;;;34.95;21.95;;;3.00;75.60;;;2.17;59.96;95230.47;5038212;28;20754;-84
2022/01/16 10:24:28;;;;;;;37.78;21.33;;;3.00;75.70;;;2.27;60.20;95233.91;5055357;28;20191;-83
2022/01/16 10:27:07;;;;;;;34.22;21.30;;;3.00;76.10;;;2.35;60.04;95213.34;5023691;28;20239;-82
2022/01/16 10:29:57;;;;;;;36.63;25.60;;;3.10;76.10;;;2.44;60.16;95206.56;5038632;28;20203;-83
2022/01/16 10:32:31;;;;;;;40.15;23.95;;;3.10;76.20;;;2.55;60.53;95205.59;5039456;28;20227;-83
2022/01/16 10:35:19;;;;;;;35.55;22.25;;;3.30;76.10;;;2.71;60.13;95211.06;5026419;28;20273;-83
2022/01/16 10:37:52;;;;;;;36.50;22.58;;;3.30;76.30;;;2.85;60.52;95203.84;5055089;28;20200;-84
2022/01/16 10:40:22;;;;;;;35.65;21.52;;;3.40;76.20;;;2.99;60.45;95207.78;5037718;28;20223;-83
2022/01/16 10:42:53;;;;;;;36.50;21.40;;;3.50;76.20;;;3.08;60.29;95201.78;5053639;28;20703;-83
2022/01/16 10:45:31;;;;;;;35.42;21.65;;;3.60;76.30;;;3.22;59.95;95205.72;5033169;28;20224;-83
2022/01/16 10:48:03;;;;;;;36.58;21.50;;;3.70;76.30;;;3.30;59.92;95207.63;5035408;28;20610;-84
2022/01/16 10:50:44;;;;;;;43.33;22.33;;;3.80;76.20;;;3.42;59.89;95209.09;5050076;28;20307;-84
2022/01/16 10:53:16;;;;;;;34.40;20.60;;;3.90;76.10;;;3.51;59.79;95210.03;5030067;28;20203;-84
2022/01/16 10:55:49;;;;;;;36.58;21.17;;;4.00;76.90;;;3.57;60.06;95206.06;5056450;28;20220;-83
2022/01/16 10:58:29;;;;;;;34.13;20.83;;;4.10;76.00;;;3.65;60.19;95200.97;5035132;28;20229;-83
2022/01/16 11:01:13;;;;;;;34.10;20.20;;;4.10;76.10;;;3.71;60.39;95203.00;5034771;28;20744;-85
2022/01/16 11:03:59;;;;;;;28.35;19.90;;;4.30;76.10;;;3.80;60.26;95196.97;5041728;28;20215;-83
2022/01/16 11:06:27;;;;;;;31.20;20.60;;;4.30;76.20;;;3.89;60.11;95200.47;5071663;28;20643;-83